createdAt,value
2018-12-25T00:01:11.578Z,8.67
2018-12-25T00:03:53.590Z,9.10
2018-12-25T00:06:34.784Z,9.30
2018-12-25T00:09:16.809Z,12.80
2018-12-25T00:11:58.536Z,9.17
2018-12-25T00:14:40.430Z,8.00
2018-12-25T00:17:22.256Z,9.83
2018-12-25T00:20:03.422Z,8.30
2018-12-25T00:22:44.528Z,7.03
2018-12-25T00:25:26.501Z,11.17
2018-12-25T00:28:08.143Z,37.50
2018-12-25T00:30:50.082Z,41.67
2018-12-25T00:33:31.848Z,14.17
2018-12-25T00:36:13.234Z,9.90
2018-12-25T00:38:55.199Z,9.50
2018-12-25T00:41:37.182Z,9.37
2018-12-25T00:44:18.901Z,8.43
2018-12-25T00:47:00.762Z,10.53
2018-12-25T00:49:42.613Z,8.23
2018-12-25T00:54:53.034Z,11.93
2018-12-25T00:57:41.748Z,10.10
2018-12-25T01:00:23.172Z,9.67
2018-12-25T01:03:04.267Z,10.30
2018-12-25T01:05:46.162Z,9.23
2018-12-25T01:08:28.005Z,7.97
2018-12-25T01:11:09.992Z,9.13
2018-12-25T01:13:51.765Z,6.83
2018-12-25T01:16:33.430Z,7.73
2018-12-25T01:19:13.010Z,7.93
2018-12-25T01:22:01.711Z,7.07
2018-12-25T01:24:43.593Z,7.70
2018-12-25T01:27:25.492Z,7.13
2018-12-25T01:30:07.104Z,8.30
2018-12-25T01:32:48.843Z,7.73
2018-12-25T01:35:30.571Z,8.20
2018-12-25T01:38:12.543Z,8.27
2018-12-25T01:40:54.601Z,7.73
2018-12-25T01:43:35.775Z,8.30
2018-12-25T01:46:17.650Z,8.03
2018-12-25T01:48:58.840Z,7.57
2018-12-25T01:51:40.007Z,8.47
2018-12-25T01:54:22.100Z,7.40
2018-12-25T01:57:01.733Z,7.93
2018-12-25T01:59:50.494Z,8.40
2018-12-25T02:02:34.511Z,7.10
2018-12-25T02:05:16.089Z,10.10
2018-12-25T02:07:57.426Z,7.37
2018-12-25T02:10:39.351Z,9.83
2018-12-25T02:13:21.214Z,8.87
2018-12-25T02:16:02.741Z,7.73
2018-12-25T02:18:44.790Z,7.80
2018-12-25T02:21:26.072Z,8.57
2018-12-25T02:24:07.753Z,9.00
2018-12-25T02:26:49.361Z,9.73
2018-12-25T02:29:31.276Z,9.63
2018-12-25T02:32:13.240Z,10.73
2018-12-25T02:34:52.897Z,11.47
2018-12-25T02:37:41.625Z,10.97
2018-12-25T02:40:23.092Z,10.00
2018-12-25T02:43:05.089Z,11.07
2018-12-25T02:45:46.713Z,12.00
2018-12-25T02:48:28.670Z,9.47
2018-12-25T02:51:09.776Z,6.83
2018-12-25T02:53:51.125Z,9.17
2018-12-25T02:56:33.112Z,9.60
2018-12-25T02:59:14.352Z,8.63
2018-12-25T03:01:56.066Z,7.80
2018-12-25T03:04:37.949Z,8.93
2018-12-25T03:07:19.902Z,8.53
2018-12-25T03:10:01.739Z,8.50
2018-12-25T03:12:41.395Z,7.03
2018-12-25T03:15:30.154Z,7.13
2018-12-25T03:18:12.157Z,7.27
2018-12-25T03:20:54.104Z,7.60
2018-12-25T03:23:36.073Z,6.90
2018-12-25T03:26:17.995Z,6.50
2018-12-25T03:28:59.113Z,6.07
2018-12-25T03:31:40.864Z,7.90
2018-12-25T03:34:22.099Z,6.60
2018-12-25T03:37:04.060Z,7.17
2018-12-25T03:39:45.615Z,7.23
2018-12-25T03:42:26.761Z,6.37
2018-12-25T03:45:07.925Z,6.63
2018-12-25T03:47:50.040Z,7.97
2018-12-25T03:50:31.618Z,6.90
2018-12-25T03:53:12.972Z,7.00
2018-12-25T03:55:54.953Z,7.50
2018-12-25T03:58:36.432Z,6.90
2018-12-25T04:01:17.821Z,8.63
2018-12-25T04:03:59.785Z,7.03
2018-12-25T04:06:41.218Z,7.67
2018-12-25T04:09:22.736Z,6.03
2018-12-25T04:12:04.673Z,8.27
2018-12-25T04:14:46.412Z,8.63
2018-12-25T04:17:28.231Z,8.57
2018-12-25T04:20:19.527Z,7.47
2018-12-25T04:22:53.666Z,6.97
2018-12-25T04:25:35.313Z,7.13
2018-12-25T04:28:17.197Z,6.97
2018-12-25T04:30:59.045Z,6.13
2018-12-25T04:33:40.538Z,6.67
2018-12-25T04:36:22.465Z,8.33
2018-12-25T04:39:04.405Z,10.30
2018-12-25T04:41:45.895Z,10.53
2018-12-25T04:44:27.541Z,10.60
2018-12-25T04:47:09.255Z,10.47
2018-12-25T04:49:51.244Z,11.17
2018-12-25T04:52:32.423Z,8.33
2018-12-25T04:55:14.399Z,9.80
2018-12-25T04:57:56.387Z,10.47
2018-12-25T05:00:38.279Z,11.27
2018-12-25T05:03:19.806Z,11.10
2018-12-25T05:06:01.814Z,10.30
2018-12-25T05:08:41.463Z,13.10
2018-12-25T05:11:30.198Z,11.10
2018-12-25T05:14:11.697Z,11.23
2018-12-25T05:16:53.726Z,10.07
2018-12-25T05:19:35.159Z,10.33
2018-12-25T05:22:16.425Z,10.23
2018-12-25T05:24:57.606Z,10.00
2018-12-25T05:27:39.473Z,9.57
2018-12-25T05:30:21.691Z,10.37
2018-12-25T05:33:02.999Z,9.50
2018-12-25T05:35:44.672Z,10.23
2018-12-25T05:38:26.652Z,9.90
2018-12-25T05:41:08.422Z,9.20
2018-12-25T05:43:49.555Z,9.13
2018-12-25T05:46:30.741Z,8.37
2018-12-25T05:49:12.719Z,10.60
2018-12-25T05:51:54.606Z,10.10
2018-12-25T05:54:36.396Z,9.43
2018-12-25T05:57:18.240Z,9.27
2018-12-25T05:59:57.911Z,10.63
2018-12-25T06:02:27.325Z,10.83
2018-12-25T06:07:49.872Z,9.90
2018-12-25T06:10:31.074Z,8.53
2018-12-25T06:13:12.468Z,10.67
2018-12-25T06:15:53.678Z,10.47
2018-12-25T06:18:34.853Z,10.23
2018-12-25T06:21:16.094Z,11.07
2018-12-25T06:23:57.864Z,8.93
2018-12-25T06:26:39.921Z,8.90
2018-12-25T06:29:19.595Z,9.73
2018-12-25T06:32:08.287Z,10.53
2018-12-25T06:34:50.081Z,8.20
2018-12-25T06:37:19.436Z,9.77
2018-12-25T06:40:01.121Z,11.00
2018-12-25T06:42:42.664Z,9.67
2018-12-25T06:45:24.585Z,11.07
2018-12-25T06:48:06.503Z,8.87
2018-12-25T06:50:48.577Z,8.27
2018-12-25T06:53:29.705Z,9.63
2018-12-25T06:56:11.281Z,16.30
2018-12-25T06:58:53.143Z,8.50
2018-12-25T07:01:32.814Z,9.57
2018-12-25T07:04:21.504Z,9.23
2018-12-25T07:07:03.329Z,8.73
2018-12-25T07:09:44.565Z,9.97
2018-12-25T07:12:26.254Z,9.07
2018-12-25T07:15:08.191Z,9.53
2018-12-25T07:17:49.544Z,10.43
2018-12-25T07:20:30.596Z,10.27
2018-12-25T07:23:12.530Z,10.33
2018-12-25T07:25:56.708Z,11.53
2018-12-25T07:28:38.631Z,11.57
2018-12-25T07:31:20.552Z,10.70
2018-12-25T07:34:02.365Z,9.87
2018-12-25T07:36:31.715Z,10.27
2018-12-25T07:39:01.082Z,10.50
2018-12-25T07:41:30.507Z,10.10
2018-12-25T07:44:19.239Z,11.27
2018-12-25T07:47:00.665Z,10.27
2018-12-25T07:49:42.643Z,10.13
2018-12-25T07:52:24.607Z,9.23
2018-12-25T07:55:06.626Z,9.47
2018-12-25T07:57:48.509Z,10.97
2018-12-25T08:00:30.152Z,11.23
2018-12-25T08:03:12.056Z,9.33
2018-12-25T08:05:53.582Z,10.20
2018-12-25T08:08:35.131Z,10.87
2018-12-25T08:11:16.865Z,10.87
2018-12-25T08:13:58.149Z,12.47
2018-12-25T08:16:39.333Z,10.50
2018-12-25T08:19:20.481Z,10.13
2018-12-25T08:22:00.144Z,10.30
2018-12-25T08:24:48.850Z,10.00
2018-12-25T08:27:30.688Z,9.40
2018-12-25T08:30:12.599Z,10.70
2018-12-25T08:32:54.222Z,9.97
2018-12-25T08:35:36.089Z,10.57
2018-12-25T08:38:17.922Z,15.23
2018-12-25T08:40:59.827Z,19.77
2018-12-25T08:43:39.501Z,17.23
2018-12-25T08:46:28.288Z,13.10
2018-12-25T08:49:09.996Z,30.50
2018-12-25T08:51:51.803Z,10.87
2018-12-25T08:54:33.748Z,15.43
2018-12-25T08:57:15.572Z,12.00
2018-12-25T08:59:58.829Z,11.27
2018-12-25T09:02:40.605Z,12.77
2018-12-25T09:05:21.772Z,13.87
2018-12-25T09:08:03.126Z,12.47
2018-12-25T09:10:45.100Z,12.70
2018-12-25T09:13:27.032Z,11.27
2018-12-25T09:16:08.200Z,10.70
2018-12-25T09:18:49.400Z,11.07
2018-12-25T09:21:30.847Z,9.90
2018-12-25T09:24:12.152Z,9.27
2018-12-25T09:26:54.069Z,9.97
2018-12-25T09:29:35.767Z,9.27
2018-12-25T09:32:17.748Z,9.90
2018-12-25T09:34:59.534Z,15.70
2018-12-25T09:37:40.791Z,10.70
2018-12-25T09:40:22.244Z,10.70
2018-12-25T09:43:03.659Z,11.97
2018-12-25T09:45:45.711Z,10.80
2018-12-25T09:48:27.396Z,13.13
2018-12-25T09:51:08.665Z,10.50
2018-12-25T09:53:50.795Z,10.13
2018-12-25T09:56:20.275Z,11.13
2018-12-25T09:59:08.991Z,10.73
2018-12-25T10:01:51.021Z,13.97
2018-12-25T10:04:34.895Z,10.77
2018-12-25T10:07:16.205Z,12.53
2018-12-25T10:10:05.732Z,13.30
2018-12-25T10:12:49.384Z,14.40
2018-12-25T10:15:31.371Z,14.33
2018-12-25T10:18:13.373Z,13.63
2018-12-25T10:23:24.356Z,13.47
2018-12-25T10:26:13.076Z,11.10
2018-12-25T10:28:55.047Z,13.27
2018-12-25T10:31:39.637Z,10.90
2018-12-25T10:34:21.650Z,10.83
2018-12-25T10:37:03.169Z,9.70
2018-12-25T10:39:42.893Z,11.43
2018-12-25T10:42:33.224Z,11.70
2018-12-25T10:45:14.488Z,11.23
2018-12-25T10:47:55.652Z,11.47
2018-12-25T10:50:37.738Z,10.97
2018-12-25T10:53:19.338Z,11.73
2018-12-25T10:56:00.559Z,10.83
2018-12-25T10:58:42.553Z,11.40
2018-12-25T11:01:24.382Z,13.00
2018-12-25T11:04:05.658Z,11.07
2018-12-25T11:06:46.966Z,11.03
2018-12-25T11:09:28.913Z,10.40
2018-12-25T11:12:10.946Z,9.57
2018-12-25T11:14:52.282Z,8.27
2018-12-25T11:17:34.036Z,8.47
2018-12-25T11:20:16.069Z,9.00
2018-12-25T11:22:58.164Z,11.00
2018-12-25T11:25:39.843Z,8.70
2018-12-25T11:28:21.669Z,9.17
2018-12-25T11:31:02.876Z,9.53
2018-12-25T11:33:44.032Z,9.00
2018-12-25T11:36:25.437Z,11.27
2018-12-25T11:39:07.129Z,9.60
2018-12-25T11:41:49.082Z,14.53
2018-12-25T11:44:31.098Z,10.43
2018-12-25T11:47:12.280Z,11.03
2018-12-25T11:49:53.943Z,10.30
2018-12-25T11:52:35.698Z,10.70
2018-12-25T11:55:17.375Z,10.60
2018-12-25T11:57:57.025Z,9.93
2018-12-25T12:00:45.747Z,10.10
2018-12-25T12:03:27.208Z,8.73
2018-12-25T12:06:09.232Z,13.40
2018-12-25T12:08:50.391Z,9.90
2018-12-25T12:11:32.032Z,12.17
2018-12-25T12:14:13.255Z,10.63
2018-12-25T12:16:54.710Z,9.83
2018-12-25T12:19:36.435Z,9.80
2018-12-25T12:22:18.145Z,8.40
2018-12-25T12:24:59.397Z,9.23
2018-12-25T12:27:50.736Z,9.30
2018-12-25T12:30:32.853Z,8.50
2018-12-25T12:33:15.623Z,8.73
2018-12-25T12:35:55.320Z,8.63
2018-12-25T12:38:44.041Z,8.40
2018-12-25T12:41:26.102Z,9.50
2018-12-25T12:44:08.013Z,9.53
2018-12-25T12:46:47.713Z,9.90
2018-12-25T12:49:36.761Z,8.73
2018-12-25T12:52:18.240Z,9.50
2018-12-25T12:55:00.254Z,24.50
2018-12-25T12:57:41.899Z,11.20
2018-12-25T13:00:24.075Z,11.57
2018-12-25T13:03:05.959Z,10.50
2018-12-25T13:05:47.107Z,10.63
2018-12-25T13:08:29.168Z,25.57
2018-12-25T13:11:11.079Z,52.83
2018-12-25T13:13:52.813Z,19.03
2018-12-25T13:16:34.713Z,12.47
2018-12-25T13:19:16.386Z,11.80
2018-12-25T13:21:58.326Z,11.60
2018-12-25T13:24:40.253Z,22.93
2018-12-25T13:27:21.838Z,32.00
2018-12-25T13:30:03.744Z,44.07
2018-12-25T13:32:45.761Z,13.57
2018-12-25T13:35:27.104Z,8.50
2018-12-25T13:38:09.081Z,9.97
2018-12-25T13:40:51.079Z,8.33
2018-12-25T13:43:33.100Z,8.10
2018-12-25T13:46:15.104Z,13.03
2018-12-25T13:48:58.220Z,8.90
2018-12-25T13:51:41.249Z,9.83
2018-12-25T13:54:22.295Z,8.37
2018-12-25T13:57:04.171Z,8.30
2018-12-25T13:59:47.114Z,8.47
2018-12-25T14:02:29.061Z,8.70
2018-12-25T14:05:10.959Z,10.80
2018-12-25T14:07:52.341Z,17.47
2018-12-25T14:10:34.148Z,18.50
2018-12-25T14:13:15.656Z,10.23
2018-12-25T14:15:57.700Z,12.17
2018-12-25T14:18:39.680Z,8.93
2018-12-25T14:21:21.906Z,8.27
2018-12-25T14:24:03.619Z,10.60
2018-12-25T14:26:44.729Z,8.73
2018-12-25T14:29:26.732Z,10.47
2018-12-25T14:32:07.976Z,8.13
2018-12-25T14:34:49.856Z,7.77
2018-12-25T14:37:31.919Z,9.33
2018-12-25T14:40:13.669Z,10.07
2018-12-25T14:42:55.359Z,10.03
2018-12-25T14:45:37.206Z,8.50
2018-12-25T14:48:20.136Z,9.97
2018-12-25T14:51:01.756Z,10.60
2018-12-25T14:53:44.007Z,10.53
2018-12-25T14:56:25.894Z,13.77
2018-12-25T14:59:07.717Z,11.93
2018-12-25T15:01:49.067Z,9.60
2018-12-25T15:04:31.424Z,9.50
2018-12-25T15:07:13.011Z,12.17
2018-12-25T15:09:54.815Z,14.70
2018-12-25T15:12:36.912Z,17.50
2018-12-25T15:15:18.769Z,16.50
2018-12-25T15:18:00.282Z,9.97
2018-12-25T15:20:41.999Z,9.50
2018-12-25T15:23:28.355Z,12.23
2018-12-25T15:26:10.827Z,9.87
2018-12-25T15:28:52.506Z,9.43
2018-12-25T15:31:34.174Z,14.13
2018-12-25T15:34:15.356Z,12.13
2018-12-25T15:36:57.091Z,9.40
2018-12-25T15:39:38.945Z,10.80
2018-12-25T15:42:23.885Z,11.63
2018-12-25T15:45:05.783Z,18.13
2018-12-25T15:47:47.918Z,13.03
2018-12-25T15:50:29.897Z,10.50
2018-12-25T15:53:12.200Z,13.07
2018-12-25T15:55:53.458Z,15.77
2018-12-25T15:58:33.180Z,21.97
2018-12-25T16:01:21.940Z,41.33
2018-12-25T16:04:03.492Z,21.00
2018-12-25T16:06:45.299Z,14.90
2018-12-25T16:09:27.066Z,12.63
2018-12-25T16:12:09.093Z,16.53
2018-12-25T16:14:51.134Z,19.40
2018-12-25T16:17:33.233Z,22.53
2018-12-25T16:20:15.388Z,14.43
2018-12-25T16:22:57.118Z,14.03
2018-12-25T16:25:38.453Z,15.83
2018-12-25T16:28:19.832Z,10.57
2018-12-25T16:31:01.637Z,11.83
2018-12-25T16:33:42.720Z,12.47
2018-12-25T16:36:23.948Z,13.73
2018-12-25T16:39:05.171Z,12.30
2018-12-25T16:41:47.037Z,16.03
2018-12-25T16:44:28.775Z,15.57
2018-12-25T16:47:10.793Z,14.50
2018-12-25T16:49:52.770Z,16.90
2018-12-25T16:52:34.434Z,15.17
2018-12-25T16:55:16.348Z,13.10
2018-12-25T16:57:58.258Z,20.70
2018-12-25T17:00:42.589Z,17.33
2018-12-25T17:03:23.786Z,15.93
2018-12-25T17:06:06.497Z,16.43
2018-12-25T17:08:48.197Z,15.83
2018-12-25T17:11:29.358Z,15.73
2018-12-25T17:14:09.026Z,16.17
2018-12-25T17:16:57.720Z,16.00
2018-12-25T17:19:39.471Z,13.57
2018-12-25T17:22:20.951Z,14.00
2018-12-25T17:25:02.883Z,13.10
2018-12-25T17:27:44.523Z,13.90
2018-12-25T17:30:26.572Z,14.43
2018-12-25T17:33:07.988Z,15.13
2018-12-25T17:35:50.003Z,14.43
2018-12-25T17:38:31.985Z,13.63
2018-12-25T17:41:13.676Z,14.50
2018-12-25T17:43:53.480Z,15.40
2018-12-25T17:46:42.197Z,15.30
2018-12-25T17:49:25.138Z,14.53
2018-12-25T17:52:07.075Z,15.60
2018-12-25T17:54:49.034Z,16.83
2018-12-25T17:57:31.016Z,17.77
2018-12-25T18:00:12.628Z,14.67
2018-12-25T18:02:53.828Z,16.60
2018-12-25T18:05:35.769Z,15.40
2018-12-25T18:08:17.563Z,15.50
2018-12-25T18:10:59.368Z,20.07
2018-12-25T18:13:41.387Z,20.43
2018-12-25T18:16:23.427Z,18.97
2018-12-25T18:19:05.339Z,20.10
2018-12-25T18:21:49.367Z,19.77
2018-12-25T18:24:30.629Z,21.57
2018-12-25T18:27:10.325Z,22.60
2018-12-25T18:29:59.549Z,17.93
2018-12-25T18:32:40.994Z,18.63
2018-12-25T18:35:23.132Z,19.93
2018-12-25T18:38:05.067Z,17.30
2018-12-25T18:40:46.613Z,20.60
2018-12-25T18:43:28.470Z,17.40
2018-12-25T18:46:09.764Z,18.53
2018-12-25T18:48:50.893Z,20.60
2018-12-25T18:51:32.367Z,17.63
2018-12-25T18:54:14.269Z,16.80
2018-12-25T18:56:56.308Z,17.70
2018-12-25T18:59:37.720Z,17.90
2018-12-25T19:02:24.511Z,20.03
2018-12-25T19:05:07.664Z,19.57
2018-12-25T19:07:49.421Z,16.53
2018-12-25T19:10:32.900Z,17.43
2018-12-25T19:13:14.731Z,16.90
2018-12-25T19:15:56.331Z,14.20
2018-12-25T19:18:38.249Z,20.37
2018-12-25T19:21:20.107Z,18.97
2018-12-25T19:24:01.446Z,13.50
2018-12-25T19:26:43.136Z,13.20
2018-12-25T19:29:24.896Z,15.80
2018-12-25T19:32:06.733Z,14.43
2018-12-25T19:34:48.595Z,12.50
2018-12-25T19:37:30.444Z,13.97
2018-12-25T19:39:59.816Z,14.80
2018-12-25T19:42:48.596Z,14.10
2018-12-25T19:45:30.628Z,15.43
2018-12-25T19:48:12.607Z,17.73
2018-12-25T19:50:53.813Z,21.57
2018-12-25T19:53:35.823Z,21.90
2018-12-25T19:56:17.703Z,16.23
2018-12-25T19:58:59.832Z,16.40
2018-12-25T20:01:39.470Z,17.03
2018-12-25T20:07:57.445Z,18.47
2018-12-25T20:10:39.030Z,16.60
2018-12-25T20:13:21.014Z,15.27
2018-12-25T20:16:29.032Z,15.83
2018-12-25T20:19:19.631Z,14.30
2018-12-25T20:22:01.477Z,14.77
2018-12-25T20:24:43.436Z,16.80
2018-12-25T20:27:28.845Z,20.77
2018-12-25T20:30:10.424Z,20.47
2018-12-25T20:32:52.130Z,21.03
2018-12-25T20:35:34.091Z,20.33
2018-12-25T20:38:15.497Z,21.53
2018-12-25T20:40:56.890Z,24.03
2018-12-25T20:43:38.904Z,24.10
2018-12-25T20:46:20.129Z,26.10
2018-12-25T20:49:01.216Z,23.37
2018-12-25T20:51:43.156Z,25.13
2018-12-25T20:54:25.147Z,19.30
2018-12-25T20:57:06.995Z,20.97
2018-12-25T21:03:34.655Z,15.23
2018-12-25T21:06:16.667Z,14.77
2018-12-25T21:08:57.897Z,16.17
2018-12-25T21:11:39.657Z,16.27
2018-12-25T21:14:21.689Z,16.00
2018-12-25T21:17:03.308Z,17.27
2018-12-25T21:19:44.568Z,22.20
2018-12-25T21:22:52.637Z,27.23
2018-12-25T21:26:00.699Z,20.17
2018-12-25T21:28:45.486Z,19.10
2018-12-25T21:31:27.203Z,21.57
2018-12-25T21:34:09.051Z,20.67
2018-12-25T21:36:50.921Z,16.80
2018-12-25T21:39:32.865Z,17.70
2018-12-25T21:42:14.720Z,18.60
2018-12-25T21:44:56.701Z,20.50
2018-12-25T21:47:38.620Z,17.27
2018-12-25T21:50:20.157Z,24.40
2018-12-25T21:53:01.999Z,14.77
2018-12-25T21:55:43.092Z,17.60
2018-12-25T21:58:26.125Z,16.57
2018-12-25T22:00:55.509Z,12.77
2018-12-25T22:03:50.729Z,13.60
2018-12-25T22:06:32.350Z,11.30
2018-12-25T22:09:14.282Z,11.73
2018-12-25T22:11:55.712Z,18.13
2018-12-25T22:14:37.213Z,15.37
2018-12-25T22:17:18.951Z,18.37
2018-12-25T22:20:00.478Z,16.97
2018-12-25T22:22:41.691Z,17.23
2018-12-25T22:25:27.121Z,17.60
2018-12-25T22:28:05.661Z,20.23
2018-12-25T22:30:47.006Z,16.37
2018-12-25T22:33:28.551Z,22.17
2018-12-25T22:36:10.688Z,21.33
2018-12-25T22:38:52.361Z,21.47
2018-12-25T22:41:35.548Z,19.97
2018-12-25T22:44:15.218Z,19.63
2018-12-25T22:47:24.658Z,19.03
2018-12-25T22:50:05.890Z,18.23
2018-12-25T22:52:47.860Z,20.40
2018-12-25T22:55:35.796Z,20.37
2018-12-25T22:58:11.993Z,21.40
2018-12-25T23:00:51.838Z,19.33
2018-12-25T23:03:40.597Z,17.23
2018-12-25T23:06:21.819Z,15.30
2018-12-25T23:09:03.884Z,18.10
2018-12-25T23:11:45.178Z,21.07
2018-12-25T23:14:27.359Z,25.00
2018-12-25T23:17:08.862Z,22.77
2018-12-25T23:19:51.710Z,20.10
2018-12-25T23:22:33.285Z,13.53
2018-12-25T23:25:15.320Z,12.07
2018-12-25T23:27:54.967Z,15.77
2018-12-25T23:30:43.799Z,13.73
2018-12-25T23:33:25.452Z,16.03
2018-12-25T23:36:07.443Z,14.37
2018-12-25T23:38:49.380Z,15.37
2018-12-25T23:41:31.446Z,15.33
2018-12-25T23:44:13.446Z,17.40
2018-12-25T23:46:55.293Z,15.00
2018-12-25T23:49:37.315Z,15.83
2018-12-25T23:52:20.085Z,17.30
2018-12-25T23:55:02.451Z,15.87
2018-12-25T23:57:44.526Z,17.97
